DW1458 Weather Reports


Display with metric or nautical units.
time (UTC)temp
F
wind
direction
speed
MPH
gust
MPH
rain 1hr
in
rain 24hr
in
rain mn
in
humidity
%
barometer
mb
20220627120028 74 110 0.0 1.0 0.00 0.23 0.00 97 1016.6
20220627114606 73 110 0.0 0.0 0.00 0.23 0.00 97 1016.2
20220627113040 73 110 0.0 0.0 0.00 0.23 0.00 97 1016.0
20220627111508 73 110 0.0 0.0 0.00 0.23 0.00 97 1016.0
20220627110047 73 110 0.0 0.0 0.00 0.23 0.00 97 1016.0
20220627104513 72 110 0.0 0.0 0.00 0.23 0.00 97 1015.7
20220627103050 72 110 0.0 0.0 0.00 0.23 0.00 97 1015.7
20220627101518 72 110 0.0 0.0 0.00 0.23 0.00 97 1015.6
20220627100103 72 110 0.0 0.0 0.00 0.23 0.00 97 1015.5
20220627094534 72 110 0.0 0.0 0.00 0.23 0.00 97 1015.3
20220627093112 72 110 0.0 0.0 0.00 0.23 0.00 97 1015.0
20220627091544 72 110 0.0 0.0 0.00 0.23 0.00 97 1015.2
20220627090021 73 110 0.0 0.0 0.00 0.23 0.00 97 1015.1
20220627084557 73 110 0.0 0.0 0.00 0.23 0.00 97 1015.1
20220627083031 73 110 0.0 0.0 0.00 0.23 0.00 97 1015.2
20220627081612 73 110 0.0 0.0 0.00 0.23 0.00 97 1015.3
20220627080042 74 110 0.0 0.0 0.00 0.23 0.00 97 1015.3
20220627074506 74 110 0.0 0.0 0.00 0.23 0.00 97 1015.5
20220627073049 74 110 0.0 0.0 0.00 0.23 0.00 97 1015.5
20220627071519 74 110 0.0 0.0 0.00 0.23 0.00 97 1015.6
20220627070102 74 110 0.0 0.0 0.00 0.23 0.00 97 1015.8
20220627064529 74 110 0.0 0.0 0.00 0.23 0.00 97 1016.1
20220627063011 74 110 0.0 0.0 0.00 0.23 0.00 97 1016.1
20220627061659 74 110 0.0 0.0 0.00 0.23 0.00 97 1016.4
20220627060022 74 110 0.0 0.0 0.00 0.23 0.00 97 1016.5
20220627054609 74 110 0.0 0.0 0.00 0.23 0.00 97 1016.6
20220627053035 74 110 0.0 0.0 0.00 0.23 0.00 97 1016.8
20220627051612 74 110 0.0 0.0 0.00 0.23 0.00 97 1016.8
20220627050039 75 110 0.0 0.0 0.00 0.23 0.00 97 1017.0
20220627044511 75 110 0.0 0.0 0.00 0.23 0.23 97 1017.1
20220627043055 74 110 0.0 0.0 0.00 0.23 0.23 97 1017.1
20220627041525 75 110 0.0 0.0 0.00 0.23 0.23 97 1017.2
20220627040108 75 110 0.0 0.0 0.00 0.23 0.23 97 1017.1
20220627034543 75 109 0.0 0.0 0.00 0.23 0.23 97 1017.0
20220627033015 75 109 0.0 0.0 0.00 0.23 0.23 97 1017.0
20220627031602 75 109 0.0 0.0 0.00 0.23 0.23 97 1016.9
20220627030030 75 109 0.0 0.0 0.00 0.23 0.23 97 1016.8
20220627024613 75 110 0.0 0.0 0.00 0.23 0.23 97 1016.5
20220627023039 75 109 0.0 0.0 0.00 0.23 0.23 97 1016.2
20220627021511 75 109 0.0 0.0 0.00 0.23 0.23 97 1015.9
20220627020053 76 109 0.0 0.0 0.00 0.23 0.23 97 1016.1
20220627014524 76 109 0.0 0.0 0.00 0.25 0.23 97 1015.9
20220627013106 76 109 0.0 0.0 0.00 0.25 0.23 97 1015.6
20220627011542 76 109 0.0 0.0 0.00 0.25 0.23 97 1015.5
20220627010009 76 109 0.0 0.0 0.00 0.25 0.23 97 1015.3
20220627004549 76 108 0.0 0.0 0.00 0.33 0.23 97 1014.9
20220627003032 77 109 0.0 0.0 0.00 0.33 0.23 97 1015.1
20220627001603 77 108 0.0 0.0 0.00 0.33 0.23 96 1015.0
20220627000037 77 109 0.0 0.0 0.00 0.33 0.23 96 1015.0
20220626234504 77 107 0.0 0.0 0.00 0.35 0.23 96 1015.0
20220626233048 77 108 0.0 1.0 0.00 0.35 0.23 96 1015.0
20220626231521 77 109 0.0 1.0 0.00 0.35 0.23 96 1014.9
20220626230109 77 103 0.0 0.0 0.01 0.35 0.23 96 1015.0
20220626224534 77 96 0.0 3.0 0.01 0.37 0.23 96 1015.1
20220626223001 77 137 0.0 2.0 0.01 0.37 0.23 96 1014.9
20220626221546 76 105 0.0 2.0 0.01 0.37 0.23 96 1015.2
20220626220014 76 249 0.0 1.0 0.01 0.36 0.22 96 1015.3
20220626214552 76 249 0.0 1.0 0.01 0.57 0.22 96 1015.3
20220626213024 76 245 0.0 1.0 0.02 0.57 0.22 96 1015.5
20220626211602 75 302 0.0 2.0 0.02 0.57 0.22 96 1015.6
20220626210032 75 293 0.0 1.0 0.01 0.56 0.21 96 1015.6
20220626204612 75 240 0.0 0.0 0.01 1.12 0.21 96 1016.0
20220626203040 75 340 0.0 2.0 0.00 1.12 0.20 96 1016.0
20220626201512 76 89 0.0 1.0 0.00 1.12 0.20 96 1016.0
20220626200050 76 90 0.0 1.0 0.13 1.12 0.20 96 1015.7
20220626194526 75 319 0.0 3.0 0.19 1.12 0.20 96 1015.8
20220626193055 75 340 0.0 3.0 0.19 1.12 0.20 96 1016.1
20220626191527 75 304 1.0 9.0 0.19 1.12 0.20 95 1016.0
20220626190107 76 321 0.0 4.0 0.05 0.98 0.06 94 1016.4
20220626184536 78 294 0.0 5.0 0.00 0.93 0.01 90 1016.9
20220626183005 79 322 1.0 4.0 0.00 0.93 0.01 85 1016.8
20220626181546 80 281 1.0 5.0 0.00 0.93 0.01 84 1016.8
20220626180016 81 216 1.0 8.0 0.00 0.93 0.01 84 1016.8
20220626174555 84 49 1.0 6.0 0.00 0.93 0.01 79 1016.8
20220626173021 89 88 0.0 5.0 0.00 0.93 0.01 78 1016.4
20220626171602 90 100 0.0 4.0 0.00 0.93 0.01 74 1016.4
20220626170033 89 89 1.0 5.0 0.00 0.93 0.01 73 1016.4
20220626164607 88 102 1.0 4.0 0.00 0.93 0.01 77 1016.5
20220626163040 88 141 1.0 3.0 0.00 0.93 0.01 79 1017.0
20220626161516 88 82 2.0 4.0 0.00 0.93 0.01 79 1017.1
20220626160103 88 72 1.0 4.0 0.00 0.93 0.01 79 1017.0
20220626154527 87 83 0.0 4.0 0.00 0.93 0.01 82 1017.0
20220626153107 86 33 1.0 4.0 0.00 0.93 0.01 84 1017.0
20220626151540 85 139 0.0 4.0 0.01 0.93 0.01 86 1017.1
20220626150011 84 95 1.0 4.0 0.01 0.93 0.01 89 1017.0
20220626144551 83 76 1.0 3.0 0.01 0.93 0.01 95 1017.3
20220626143017 81 114 0.0 2.0 0.01 0.93 0.01 96 1017.2
20220626141605 80 86 1.0 4.0 0.00 0.92 0.00 96 1016.9
20220626140038 79 98 0.0 3.0 0.00 0.92 0.00 96 1016.9
20220626134511 79 100 0.0 4.0 0.00 0.92 0.00 97 1016.9
20220626133056 79 101 0.0 1.0 0.00 0.92 0.00 97 1016.6
20220626131527 77 105 0.0 3.0 0.00 0.92 0.00 97 1016.8
20220626130105 77 278 0.0 1.0 0.00 0.92 0.00 97 1016.7
20220626124532 77 341 0.0 1.0 0.00 0.92 0.00 97 1016.8
20220626123005 77 95 0.0 1.0 0.00 0.92 0.00 97 1016.5
20220626121546 76 96 0.0 1.0 0.00 0.92 0.00 97 1016.5